Terminal Aerodrome Forecast
Issued by NWS

Home | Current Version | Previous Version | Text Only | Print | Product List | Glossary On
Versions: 1 2 3 4 5 6 7 8 9 10 11 12 13 14 15 16 17 18 19 20 21
765
FTAK31 PANC 221124
TAFADU
TAF
PADU 221124Z 2212/2312 VRB05KT P6SM FEW025 BKN040
     FM221600 14015G22KT P6SM OVC025
     FM222000 14020G30KT P6SM VCSH OVC020
     FM230300 14024G35KT 3SM -RA BR OVC010=

USA.gov is the U.S. government's official web portal to all federal, state and local government web resources and services.